sensor_id;sensor_type;location;lat;lon;timestamp;temperature;humidity
12438;DHT22;6283;51.330;12.374;2023-08-24T00:02:05;20.40;1.00
12438;DHT22;6283;51.330;12.374;2023-08-24T00:04:32;20.30;1.00
12438;DHT22;6283;51.330;12.374;2023-08-24T00:06:57;20.40;1.00
12438;DHT22;6283;51.330;12.374;2023-08-24T00:09:23;20.30;1.00
12438;DHT22;6283;51.330;12.374;2023-08-24T00:11:49;20.30;1.00
12438;DHT22;6283;51.330;12.374;2023-08-24T00:14:15;20.30;1.00
12438;DHT22;6283;51.330;12.374;2023-08-24T00:16:41;20.30;1.00
12438;DHT22;6283;51.330;12.374;2023-08-24T00:19:07;20.30;1.00
12438;DHT22;6283;51.330;12.374;2023-08-24T00:21:33;20.30;1.00
12438;DHT22;6283;51.330;12.374;2023-08-24T00:23:58;20.30;1.00
12438;DHT22;6283;51.330;12.374;2023-08-24T00:26:25;20.30;1.00
12438;DHT22;6283;51.330;12.374;2023-08-24T00:28:50;20.20;1.00
12438;DHT22;6283;51.330;12.374;2023-08-24T00:31:17;20.30;1.00
12438;DHT22;6283;51.330;12.374;2023-08-24T00:33:43;20.30;1.00
12438;DHT22;6283;51.330;12.374;2023-08-24T00:36:09;20.20;1.00
12438;DHT22;6283;51.330;12.374;2023-08-24T00:38:34;20.30;1.00
12438;DHT22;6283;51.330;12.374;2023-08-24T00:41:00;20.20;1.00
12438;DHT22;6283;51.330;12.374;2023-08-24T00:43:26;20.20;1.00
12438;DHT22;6283;51.330;12.374;2023-08-24T00:45:55;20.20;1.00
12438;DHT22;6283;51.330;12.374;2023-08-24T00:48:22;20.20;1.00
12438;DHT22;6283;51.330;12.374;2023-08-24T00:50:52;20.10;1.00
12438;DHT22;6283;51.330;12.374;2023-08-24T00:53:19;20.10;1.00
12438;DHT22;6283;51.330;12.374;2023-08-24T00:55:46;20.10;1.00
12438;DHT22;6283;51.330;12.374;2023-08-24T00:58:12;20.10;1.00
12438;DHT22;6283;51.330;12.374;2023-08-24T01:00:38;20.10;1.00
12438;DHT22;6283;51.330;12.374;2023-08-24T01:03:04;20.10;1.00
12438;DHT22;6283;51.330;12.374;2023-08-24T01:05:30;20.00;1.00
12438;DHT22;6283;51.330;12.374;2023-08-24T01:07:56;20.00;1.00
12438;DHT22;6283;51.330;12.374;2023-08-24T01:10:22;19.90;1.00
12438;DHT22;6283;51.330;12.374;2023-08-24T01:12:52;19.90;1.00
12438;DHT22;6283;51.330;12.374;2023-08-24T01:17:50;19.80;1.00
12438;DHT22;6283;51.330;12.374;2023-08-24T01:20:18;19.80;1.00
12438;DHT22;6283;51.330;12.374;2023-08-24T01:22:54;19.80;1.00
12438;DHT22;6283;51.330;12.374;2023-08-24T01:25:29;19.80;3.10
12438;DHT22;6283;51.330;12.374;2023-08-24T01:27:59;19.80;9.40
12438;DHT22;6283;51.330;12.374;2023-08-24T01:30:25;19.70;14.50
12438;DHT22;6283;51.330;12.374;2023-08-24T01:32:51;19.80;25.70
12438;DHT22;6283;51.330;12.374;2023-08-24T01:35:17;19.70;36.60
12438;DHT22;6283;51.330;12.374;2023-08-24T01:37:43;19.70;46.10
12438;DHT22;6283;51.330;12.374;2023-08-24T01:40:19;19.70;56.40
12438;DHT22;6283;51.330;12.374;2023-08-24T01:42:55;19.70;65.80
12438;DHT22;6283;51.330;12.374;2023-08-24T01:45:22;19.80;77.00
12438;DHT22;6283;51.330;12.374;2023-08-24T01:47:50;19.70;80.10
12438;DHT22;6283;51.330;12.374;2023-08-24T01:50:17;19.70;90.60
12438;DHT22;6283;51.330;12.374;2023-08-24T01:52:44;19.70;95.80
12438;DHT22;6283;51.330;12.374;2023-08-24T01:55:10;19.70;93.50
12438;DHT22;6283;51.330;12.374;2023-08-24T01:57:37;19.70;94.90
12438;DHT22;6283;51.330;12.374;2023-08-24T02:00:04;19.60;97.10
12438;DHT22;6283;51.330;12.374;2023-08-24T02:02:32;19.60;99.90
12438;DHT22;6283;51.330;12.374;2023-08-24T02:04:58;19.60;99.90
12438;DHT22;6283;51.330;12.374;2023-08-24T02:07:24;19.50;99.90
12438;DHT22;6283;51.330;12.374;2023-08-24T02:09:50;19.50;99.90
12438;DHT22;6283;51.330;12.374;2023-08-24T02:12:15;19.50;99.90
12438;DHT22;6283;51.330;12.374;2023-08-24T02:14:41;19.40;99.90
12438;DHT22;6283;51.330;12.374;2023-08-24T02:17:06;19.40;99.90
12438;DHT22;6283;51.330;12.374;2023-08-24T02:19:32;19.40;99.90
12438;DHT22;6283;51.330;12.374;2023-08-24T02:21:58;19.40;99.90
12438;DHT22;6283;51.330;12.374;2023-08-24T02:24:23;19.40;99.90
12438;DHT22;6283;51.330;12.374;2023-08-24T02:26:49;19.30;99.90
12438;DHT22;6283;51.330;12.374;2023-08-24T02:29:14;19.30;99.90
12438;DHT22;6283;51.330;12.374;2023-08-24T02:31:40;19.30;99.90
12438;DHT22;6283;51.330;12.374;2023-08-24T02:34:06;19.30;99.90
12438;DHT22;6283;51.330;12.374;2023-08-24T02:36:32;19.30;99.90
12438;DHT22;6283;51.330;12.374;2023-08-24T02:38:59;19.20;99.90
12438;DHT22;6283;51.330;12.374;2023-08-24T02:41:25;19.20;99.90
12438;DHT22;6283;51.330;12.374;2023-08-24T02:43:51;19.20;99.90
12438;DHT22;6283;51.330;12.374;2023-08-24T02:46:16;19.20;99.90
12438;DHT22;6283;51.330;12.374;2023-08-24T02:48:44;19.20;99.90
12438;DHT22;6283;51.330;12.374;2023-08-24T02:51:10;19.20;99.90
12438;DHT22;6283;51.330;12.374;2023-08-24T02:53:36;19.10;99.90
12438;DHT22;6283;51.330;12.374;2023-08-24T02:56:02;19.10;99.90
12438;DHT22;6283;51.330;12.374;2023-08-24T02:58:29;19.10;99.90
12438;DHT22;6283;51.330;12.374;2023-08-24T03:00:55;19.10;99.90
12438;DHT22;6283;51.330;12.374;2023-08-24T03:03:21;19.10;99.90
12438;DHT22;6283;51.330;12.374;2023-08-24T03:06:13;19.00;99.90
12438;DHT22;6283;51.330;12.374;2023-08-24T03:08:38;19.00;99.90
12438;DHT22;6283;51.330;12.374;2023-08-24T03:11:04;19.00;99.90
12438;DHT22;6283;51.330;12.374;2023-08-24T03:13:30;19.00;99.90
12438;DHT22;6283;51.330;12.374;2023-08-24T03:15:56;19.00;99.90
12438;DHT22;6283;51.330;12.374;2023-08-24T03:18:22;19.00;99.90
12438;DHT22;6283;51.330;12.374;2023-08-24T03:20:48;18.90;99.90
12438;DHT22;6283;51.330;12.374;2023-08-24T03:23:15;18.90;99.90
12438;DHT22;6283;51.330;12.374;2023-08-24T03:25:41;18.90;99.90
12438;DHT22;6283;51.330;12.374;2023-08-24T03:28:08;18.90;99.90
12438;DHT22;6283;51.330;12.374;2023-08-24T03:30:46;18.90;99.90
12438;DHT22;6283;51.330;12.374;2023-08-24T03:33:12;18.90;99.90
12438;DHT22;6283;51.330;12.374;2023-08-24T03:35:37;18.80;99.90
12438;DHT22;6283;51.330;12.374;2023-08-24T03:38:03;18.80;99.90
12438;DHT22;6283;51.330;12.374;2023-08-24T03:40:29;18.80;99.90
12438;DHT22;6283;51.330;12.374;2023-08-24T03:42:55;18.80;99.90
12438;DHT22;6283;51.330;12.374;2023-08-24T03:45:22;18.80;99.90
12438;DHT22;6283;51.330;12.374;2023-08-24T03:47:48;18.80;99.90
12438;DHT22;6283;51.330;12.374;2023-08-24T03:50:13;18.80;99.90
12438;DHT22;6283;51.330;12.374;2023-08-24T03:52:39;18.80;99.90
12438;DHT22;6283;51.330;12.374;2023-08-24T03:55:06;18.80;99.90
12438;DHT22;6283;51.330;12.374;2023-08-24T03:57:32;18.80;99.90
12438;DHT22;6283;51.330;12.374;2023-08-24T03:59:58;18.80;99.90
12438;DHT22;6283;51.330;12.374;2023-08-24T04:02:23;18.80;99.90
12438;DHT22;6283;51.330;12.374;2023-08-24T04:04:50;18.80;99.90
12438;DHT22;6283;51.330;12.374;2023-08-24T04:07:16;18.80;99.90
12438;DHT22;6283;51.330;12.374;2023-08-24T04:09:41;18.80;99.90
12438;DHT22;6283;51.330;12.374;2023-08-24T04:12:07;18.80;99.90
12438;DHT22;6283;51.330;12.374;2023-08-24T04:14:33;18.80;99.90
12438;DHT22;6283;51.330;12.374;2023-08-24T04:16:59;18.80;99.90
12438;DHT22;6283;51.330;12.374;2023-08-24T04:19:24;18.80;99.90
12438;DHT22;6283;51.330;12.374;2023-08-24T04:21:50;18.80;99.90
12438;DHT22;6283;51.330;12.374;2023-08-24T04:24:15;18.90;99.90
12438;DHT22;6283;51.330;12.374;2023-08-24T04:26:41;18.90;99.90
12438;DHT22;6283;51.330;12.374;2023-08-24T04:29:07;19.00;99.90
12438;DHT22;6283;51.330;12.374;2023-08-24T04:31:32;19.00;99.90
12438;DHT22;6283;51.330;12.374;2023-08-24T04:33:58;19.00;99.90
12438;DHT22;6283;51.330;12.374;2023-08-24T04:36:23;19.00;99.90
12438;DHT22;6283;51.330;12.374;2023-08-24T04:38:49;19.00;1.00
12438;DHT22;6283;51.330;12.374;2023-08-24T04:41:15;19.00;1.00
12438;DHT22;6283;51.330;12.374;2023-08-24T04:43:41;19.00;1.00
12438;DHT22;6283;51.330;12.374;2023-08-24T04:46:06;19.00;1.00
12438;DHT22;6283;51.330;12.374;2023-08-24T04:48:32;19.00;1.00
12438;DHT22;6283;51.330;12.374;2023-08-24T04:51:01;19.00;1.00
12438;DHT22;6283;51.330;12.374;2023-08-24T04:53:27;19.10;1.00
12438;DHT22;6283;51.330;12.374;2023-08-24T04:55:53;19.10;1.00
12438;DHT22;6283;51.330;12.374;2023-08-24T04:58:18;19.20;99.90
12438;DHT22;6283;51.330;12.374;2023-08-24T05:00:44;19.20;99.90
12438;DHT22;6283;51.330;12.374;2023-08-24T05:03:10;19.20;99.90
12438;DHT22;6283;51.330;12.374;2023-08-24T05:05:36;19.20;99.90
12438;DHT22;6283;51.330;12.374;2023-08-24T05:08:03;19.20;99.90
12438;DHT22;6283;51.330;12.374;2023-08-24T05:10:32;19.20;99.90
12438;DHT22;6283;51.330;12.374;2023-08-24T05:12:59;19.20;99.90
12438;DHT22;6283;51.330;12.374;2023-08-24T05:15:25;19.20;99.90
12438;DHT22;6283;51.330;12.374;2023-08-24T05:17:51;19.20;99.90
12438;DHT22;6283;51.330;12.374;2023-08-24T05:20:22;19.20;99.90
12438;DHT22;6283;51.330;12.374;2023-08-24T05:22:48;19.20;99.90
12438;DHT22;6283;51.330;12.374;2023-08-24T05:25:13;19.20;99.90
12438;DHT22;6283;51.330;12.374;2023-08-24T05:27:41;19.20;99.90
12438;DHT22;6283;51.330;12.374;2023-08-24T05:30:07;19.20;99.90
12438;DHT22;6283;51.330;12.374;2023-08-24T05:32:34;19.10;99.90
12438;DHT22;6283;51.330;12.374;2023-08-24T05:35:03;19.20;99.90
12438;DHT22;6283;51.330;12.374;2023-08-24T05:37:29;19.20;99.90
12438;DHT22;6283;51.330;12.374;2023-08-24T05:39:54;19.20;99.90
12438;DHT22;6283;51.330;12.374;2023-08-24T05:42:20;19.20;99.90
12438;DHT22;6283;51.330;12.374;2023-08-24T05:44:45;19.30;99.90
12438;DHT22;6283;51.330;12.374;2023-08-24T05:47:11;19.30;99.90
12438;DHT22;6283;51.330;12.374;2023-08-24T05:49:37;19.30;99.90
12438;DHT22;6283;51.330;12.374;2023-08-24T05:52:02;19.30;99.90
12438;DHT22;6283;51.330;12.374;2023-08-24T05:54:28;19.20;99.90
12438;DHT22;6283;51.330;12.374;2023-08-24T05:56:54;19.20;99.90
12438;DHT22;6283;51.330;12.374;2023-08-24T05:59:19;19.10;99.90
12438;DHT22;6283;51.330;12.374;2023-08-24T06:01:45;19.10;99.90
12438;DHT22;6283;51.330;12.374;2023-08-24T06:04:11;19.00;99.90
12438;DHT22;6283;51.330;12.374;2023-08-24T06:06:37;19.00;99.90
12438;DHT22;6283;51.330;12.374;2023-08-24T06:09:03;19.10;99.90
12438;DHT22;6283;51.330;12.374;2023-08-24T06:11:34;19.20;99.90
12438;DHT22;6283;51.330;12.374;2023-08-24T06:14:01;19.30;99.90
12438;DHT22;6283;51.330;12.374;2023-08-24T06:16:27;19.40;99.90
12438;DHT22;6283;51.330;12.374;2023-08-24T06:18:53;19.50;99.90
12438;DHT22;6283;51.330;12.374;2023-08-24T06:21:19;19.60;99.90
12438;DHT22;6283;51.330;12.374;2023-08-24T06:23:44;19.60;99.90
12438;DHT22;6283;51.330;12.374;2023-08-24T06:26:10;19.70;99.90
12438;DHT22;6283;51.330;12.374;2023-08-24T06:28:36;19.70;99.90
12438;DHT22;6283;51.330;12.374;2023-08-24T06:31:01;19.80;99.90
12438;DHT22;6283;51.330;12.374;2023-08-24T06:33:28;19.90;99.90
12438;DHT22;6283;51.330;12.374;2023-08-24T06:35:57;20.00;87.60
12438;DHT22;6283;51.330;12.374;2023-08-24T06:38:23;20.10;71.60
12438;DHT22;6283;51.330;12.374;2023-08-24T06:40:48;20.20;49.20
12438;DHT22;6283;51.330;12.374;2023-08-24T06:43:14;20.30;35.80
12438;DHT22;6283;51.330;12.374;2023-08-24T06:45:40;20.50;24.00
12438;DHT22;6283;51.330;12.374;2023-08-24T06:48:06;20.60;13.80
12438;DHT22;6283;51.330;12.374;2023-08-24T06:50:33;20.70;6.10
12438;DHT22;6283;51.330;12.374;2023-08-24T06:52:59;20.90;1.00
12438;DHT22;6283;51.330;12.374;2023-08-24T06:55:26;21.00;1.00
12438;DHT22;6283;51.330;12.374;2023-08-24T06:57:51;21.10;1.00
12438;DHT22;6283;51.330;12.374;2023-08-24T07:00:18;21.30;1.00
12438;DHT22;6283;51.330;12.374;2023-08-24T07:02:48;21.40;1.00
12438;DHT22;6283;51.330;12.374;2023-08-24T07:05:14;21.50;1.00
12438;DHT22;6283;51.330;12.374;2023-08-24T07:07:40;21.70;1.00
12438;DHT22;6283;51.330;12.374;2023-08-24T07:10:09;21.80;1.00
12438;DHT22;6283;51.330;12.374;2023-08-24T07:12:35;21.90;1.00
12438;DHT22;6283;51.330;12.374;2023-08-24T07:15:01;21.90;1.00
12438;DHT22;6283;51.330;12.374;2023-08-24T07:17:27;22.00;1.00
12438;DHT22;6283;51.330;12.374;2023-08-24T07:19:53;22.10;1.00
12438;DHT22;6283;51.330;12.374;2023-08-24T07:22:19;22.20;1.00
12438;DHT22;6283;51.330;12.374;2023-08-24T07:24:45;22.40;1.00
12438;DHT22;6283;51.330;12.374;2023-08-24T07:27:11;22.50;1.00
12438;DHT22;6283;51.330;12.374;2023-08-24T07:29:37;22.60;1.00
12438;DHT22;6283;51.330;12.374;2023-08-24T07:32:03;22.70;1.00
12438;DHT22;6283;51.330;12.374;2023-08-24T07:34:29;22.80;1.00
12438;DHT22;6283;51.330;12.374;2023-08-24T07:36:54;22.90;1.00
12438;DHT22;6283;51.330;12.374;2023-08-24T07:39:20;23.00;1.00
12438;DHT22;6283;51.330;12.374;2023-08-24T07:41:49;23.10;1.00
12438;DHT22;6283;51.330;12.374;2023-08-24T07:44:14;23.10;1.00
12438;DHT22;6283;51.330;12.374;2023-08-24T07:46:40;23.20;1.00
12438;DHT22;6283;51.330;12.374;2023-08-24T07:49:06;23.40;1.00
12438;DHT22;6283;51.330;12.374;2023-08-24T07:51:33;23.50;1.00
12438;DHT22;6283;51.330;12.374;2023-08-24T07:53:59;23.60;1.00
12438;DHT22;6283;51.330;12.374;2023-08-24T07:56:25;23.70;1.00
12438;DHT22;6283;51.330;12.374;2023-08-24T07:58:51;23.80;1.00
12438;DHT22;6283;51.330;12.374;2023-08-24T08:01:16;23.90;1.00
12438;DHT22;6283;51.330;12.374;2023-08-24T08:03:42;24.00;1.00
12438;DHT22;6283;51.330;12.374;2023-08-24T08:06:07;24.00;1.00
12438;DHT22;6283;51.330;12.374;2023-08-24T08:08:33;24.20;1.00
12438;DHT22;6283;51.330;12.374;2023-08-24T08:11:00;24.30;1.00
12438;DHT22;6283;51.330;12.374;2023-08-24T08:13:26;24.40;1.00
12438;DHT22;6283;51.330;12.374;2023-08-24T08:15:53;24.40;1.00
12438;DHT22;6283;51.330;12.374;2023-08-24T08:18:18;24.50;1.00
12438;DHT22;6283;51.330;12.374;2023-08-24T08:20:44;24.60;1.00
12438;DHT22;6283;51.330;12.374;2023-08-24T08:23:11;24.80;1.00
12438;DHT22;6283;51.330;12.374;2023-08-24T08:25:36;25.00;1.00
12438;DHT22;6283;51.330;12.374;2023-08-24T08:28:02;25.20;1.00
12438;DHT22;6283;51.330;12.374;2023-08-24T08:30:27;25.30;1.00
12438;DHT22;6283;51.330;12.374;2023-08-24T08:32:53;25.50;1.00
12438;DHT22;6283;51.330;12.374;2023-08-24T08:35:21;25.70;1.00
12438;DHT22;6283;51.330;12.374;2023-08-24T08:37:47;25.90;1.00
12438;DHT22;6283;51.330;12.374;2023-08-24T08:40:14;26.10;1.00
12438;DHT22;6283;51.330;12.374;2023-08-24T08:42:40;26.20;1.00
12438;DHT22;6283;51.330;12.374;2023-08-24T08:45:09;26.30;1.00
12438;DHT22;6283;51.330;12.374;2023-08-24T08:47:35;26.30;1.00
12438;DHT22;6283;51.330;12.374;2023-08-24T08:50:02;26.40;1.00
12438;DHT22;6283;51.330;12.374;2023-08-24T08:52:33;26.50;1.00
12438;DHT22;6283;51.330;12.374;2023-08-24T08:55:00;26.60;1.00
12438;DHT22;6283;51.330;12.374;2023-08-24T08:57:25;26.60;1.00
12438;DHT22;6283;51.330;12.374;2023-08-24T08:59:54;26.70;1.00
12438;DHT22;6283;51.330;12.374;2023-08-24T09:02:21;26.80;1.00
12438;DHT22;6283;51.330;12.374;2023-08-24T09:04:51;26.90;1.00
12438;DHT22;6283;51.330;12.374;2023-08-24T09:07:16;27.00;1.00
12438;DHT22;6283;51.330;12.374;2023-08-24T09:09:43;27.10;1.00
12438;DHT22;6283;51.330;12.374;2023-08-24T09:12:09;27.10;1.00
12438;DHT22;6283;51.330;12.374;2023-08-24T09:14:35;27.10;1.00
12438;DHT22;6283;51.330;12.374;2023-08-24T09:17:01;27.10;1.00
12438;DHT22;6283;51.330;12.374;2023-08-24T09:19:33;27.10;1.00
12438;DHT22;6283;51.330;12.374;2023-08-24T09:22:01;27.10;1.00
12438;DHT22;6283;51.330;12.374;2023-08-24T09:24:32;27.00;1.00
12438;DHT22;6283;51.330;12.374;2023-08-24T09:26:57;27.00;1.00
12438;DHT22;6283;51.330;12.374;2023-08-24T09:29:23;27.00;1.00
12438;DHT22;6283;51.330;12.374;2023-08-24T09:31:50;27.00;1.00
12438;DHT22;6283;51.330;12.374;2023-08-24T09:34:19;27.10;1.00
12438;DHT22;6283;51.330;12.374;2023-08-24T09:36:48;27.20;1.00
12438;DHT22;6283;51.330;12.374;2023-08-24T09:39:16;27.20;1.00
12438;DHT22;6283;51.330;12.374;2023-08-24T09:41:45;27.10;1.00
12438;DHT22;6283;51.330;12.374;2023-08-24T09:44:10;27.10;1.00
12438;DHT22;6283;51.330;12.374;2023-08-24T09:46:38;26.90;1.00
12438;DHT22;6283;51.330;12.374;2023-08-24T09:49:08;26.80;1.00
12438;DHT22;6283;51.330;12.374;2023-08-24T09:51:37;26.80;1.00
12438;DHT22;6283;51.330;12.374;2023-08-24T09:54:08;26.90;1.00
12438;DHT22;6283;51.330;12.374;2023-08-24T09:56:43;27.00;1.00
12438;DHT22;6283;51.330;12.374;2023-08-24T09:59:14;27.10;1.00
12438;DHT22;6283;51.330;12.374;2023-08-24T10:01:47;27.10;1.00
12438;DHT22;6283;51.330;12.374;2023-08-24T10:04:17;27.10;1.00
12438;DHT22;6283;51.330;12.374;2023-08-24T10:06:51;27.20;1.00
12438;DHT22;6283;51.330;12.374;2023-08-24T10:09:31;27.30;1.00
12438;DHT22;6283;51.330;12.374;2023-08-24T10:12:02;27.30;1.00
12438;DHT22;6283;51.330;12.374;2023-08-24T10:14:41;27.40;1.00
12438;DHT22;6283;51.330;12.374;2023-08-24T10:17:09;27.50;1.00
12438;DHT22;6283;51.330;12.374;2023-08-24T10:19:36;27.70;1.00
12438;DHT22;6283;51.330;12.374;2023-08-24T10:22:03;27.80;1.00
12438;DHT22;6283;51.330;12.374;2023-08-24T10:24:29;27.90;1.00
12438;DHT22;6283;51.330;12.374;2023-08-24T10:26:57;28.00;1.00
12438;DHT22;6283;51.330;12.374;2023-08-24T10:29:23;28.20;1.00
12438;DHT22;6283;51.330;12.374;2023-08-24T10:31:50;28.30;1.00
12438;DHT22;6283;51.330;12.374;2023-08-24T10:34:16;28.30;1.00
12438;DHT22;6283;51.330;12.374;2023-08-24T10:36:41;28.30;1.00
12438;DHT22;6283;51.330;12.374;2023-08-24T10:39:07;28.30;1.00
12438;DHT22;6283;51.330;12.374;2023-08-24T10:41:47;28.30;1.00
12438;DHT22;6283;51.330;12.374;2023-08-24T10:44:21;28.30;1.00
12438;DHT22;6283;51.330;12.374;2023-08-24T10:50:01;28.40;1.00
12438;DHT22;6283;51.330;12.374;2023-08-24T10:52:30;28.50;1.00
12438;DHT22;6283;51.330;12.374;2023-08-24T10:54:57;28.60;1.00
12438;DHT22;6283;51.330;12.374;2023-08-24T10:57:35;28.70;1.00
12438;DHT22;6283;51.330;12.374;2023-08-24T11:00:10;28.60;1.00
12438;DHT22;6283;51.330;12.374;2023-08-24T11:02:50;28.60;1.00
12438;DHT22;6283;51.330;12.374;2023-08-24T11:05:27;28.60;1.00
12438;DHT22;6283;51.330;12.374;2023-08-24T11:10:24;28.50;1.00
12438;DHT22;6283;51.330;12.374;2023-08-24T11:13:16;28.50;1.00
12438;DHT22;6283;51.330;12.374;2023-08-24T11:15:46;28.50;1.00
12438;DHT22;6283;51.330;12.374;2023-08-24T11:21:01;28.50;1.00
12438;DHT22;6283;51.330;12.374;2023-08-24T11:23:30;28.60;1.00
12438;DHT22;6283;51.330;12.374;2023-08-24T11:25:57;28.60;1.00
12438;DHT22;6283;51.330;12.374;2023-08-24T11:28:30;28.60;1.00
12438;DHT22;6283;51.330;12.374;2023-08-24T11:30:57;28.60;1.00
12438;DHT22;6283;51.330;12.374;2023-08-24T11:33:34;28.60;1.00
12438;DHT22;6283;51.330;12.374;2023-08-24T11:36:01;28.60;1.00
12438;DHT22;6283;51.330;12.374;2023-08-24T11:38:41;28.60;1.00
12438;DHT22;6283;51.330;12.374;2023-08-24T11:41:14;28.60;1.00
12438;DHT22;6283;51.330;12.374;2023-08-24T11:43:40;28.60;1.00
12438;DHT22;6283;51.330;12.374;2023-08-24T11:46:06;28.70;1.00
12438;DHT22;6283;51.330;12.374;2023-08-24T11:48:32;28.70;1.00
12438;DHT22;6283;51.330;12.374;2023-08-24T11:50:59;28.80;1.00
12438;DHT22;6283;51.330;12.374;2023-08-24T11:53:25;28.90;1.00
12438;DHT22;6283;51.330;12.374;2023-08-24T11:55:55;29.00;1.00
12438;DHT22;6283;51.330;12.374;2023-08-24T11:58:20;29.00;1.00
12438;DHT22;6283;51.330;12.374;2023-08-24T12:00:46;29.10;1.00
12438;DHT22;6283;51.330;12.374;2023-08-24T12:03:13;29.10;1.00
12438;DHT22;6283;51.330;12.374;2023-08-24T12:05:39;29.10;1.00
12438;DHT22;6283;51.330;12.374;2023-08-24T12:08:07;29.10;1.00
12438;DHT22;6283;51.330;12.374;2023-08-24T12:10:42;29.10;1.00
12438;DHT22;6283;51.330;12.374;2023-08-24T12:13:08;29.20;1.00
12438;DHT22;6283;51.330;12.374;2023-08-24T12:15:36;29.30;1.00
12438;DHT22;6283;51.330;12.374;2023-08-24T15:35:18;36.90;99.90
12438;DHT22;6283;51.330;12.374;2023-08-24T15:37:43;36.50;99.90
12438;DHT22;6283;51.330;12.374;2023-08-24T15:40:09;36.20;99.90
12438;DHT22;6283;51.330;12.374;2023-08-24T15:42:36;36.00;99.90
12438;DHT22;6283;51.330;12.374;2023-08-24T15:45:02;35.80;99.90
12438;DHT22;6283;51.330;12.374;2023-08-24T15:47:27;35.60;99.90
12438;DHT22;6283;51.330;12.374;2023-08-24T15:49:53;35.70;99.90
12438;DHT22;6283;51.330;12.374;2023-08-24T15:52:19;35.70;99.90
12438;DHT22;6283;51.330;12.374;2023-08-24T15:54:44;35.90;99.90
12438;DHT22;6283;51.330;12.374;2023-08-24T15:57:10;36.00;99.90
12438;DHT22;6283;51.330;12.374;2023-08-24T15:59:35;36.10;99.90
12438;DHT22;6283;51.330;12.374;2023-08-24T16:02:01;36.10;99.90
12438;DHT22;6283;51.330;12.374;2023-08-24T16:04:27;36.20;99.90
12438;DHT22;6283;51.330;12.374;2023-08-24T16:06:52;36.50;99.90
12438;DHT22;6283;51.330;12.374;2023-08-24T16:09:18;36.70;99.90
12438;DHT22;6283;51.330;12.374;2023-08-24T16:11:43;37.00;99.90
12438;DHT22;6283;51.330;12.374;2023-08-24T16:14:09;37.20;99.90
12438;DHT22;6283;51.330;12.374;2023-08-24T16:16:37;37.50;99.90
12438;DHT22;6283;51.330;12.374;2023-08-24T16:19:03;37.70;99.90
12438;DHT22;6283;51.330;12.374;2023-08-24T16:21:29;37.70;99.90
12438;DHT22;6283;51.330;12.374;2023-08-24T16:23:56;37.60;99.90
12438;DHT22;6283;51.330;12.374;2023-08-24T16:26:21;37.60;99.90
12438;DHT22;6283;51.330;12.374;2023-08-24T16:28:47;37.60;99.90
12438;DHT22;6283;51.330;12.374;2023-08-24T16:31:15;37.40;99.90
12438;DHT22;6283;51.330;12.374;2023-08-24T16:33:40;37.20;99.90
12438;DHT22;6283;51.330;12.374;2023-08-24T16:36:09;36.70;99.90
12438;DHT22;6283;51.330;12.374;2023-08-24T16:38:35;36.20;99.90
12438;DHT22;6283;51.330;12.374;2023-08-24T16:41:01;35.70;99.90
12438;DHT22;6283;51.330;12.374;2023-08-24T16:43:26;35.20;99.90
12438;DHT22;6283;51.330;12.374;2023-08-24T16:45:52;34.80;99.90
12438;DHT22;6283;51.330;12.374;2023-08-24T16:48:18;34.30;99.90
12438;DHT22;6283;51.330;12.374;2023-08-24T16:50:43;34.00;99.90
12438;DHT22;6283;51.330;12.374;2023-08-24T16:53:09;33.70;99.90
12438;DHT22;6283;51.330;12.374;2023-08-24T16:55:35;33.40;99.90
12438;DHT22;6283;51.330;12.374;2023-08-24T16:58:01;33.10;99.90
12438;DHT22;6283;51.330;12.374;2023-08-24T17:00:27;32.90;99.90
12438;DHT22;6283;51.330;12.374;2023-08-24T17:02:53;32.70;99.90
12438;DHT22;6283;51.330;12.374;2023-08-24T17:05:21;32.50;99.90
12438;DHT22;6283;51.330;12.374;2023-08-24T17:08:10;32.30;99.90
12438;DHT22;6283;51.330;12.374;2023-08-24T17:10:38;32.20;99.90
12438;DHT22;6283;51.330;12.374;2023-08-24T17:13:04;32.10;99.90
12438;DHT22;6283;51.330;12.374;2023-08-24T17:15:30;31.90;99.90
12438;DHT22;6283;51.330;12.374;2023-08-24T17:17:57;31.80;99.90
12438;DHT22;6283;51.330;12.374;2023-08-24T17:20:23;31.80;99.90
12438;DHT22;6283;51.330;12.374;2023-08-24T17:22:49;31.70;99.90
12438;DHT22;6283;51.330;12.374;2023-08-24T17:25:15;31.60;99.90
12438;DHT22;6283;51.330;12.374;2023-08-24T17:27:40;31.50;99.90
12438;DHT22;6283;51.330;12.374;2023-08-24T17:30:07;31.30;99.90
12438;DHT22;6283;51.330;12.374;2023-08-24T17:32:32;31.20;99.90
12438;DHT22;6283;51.330;12.374;2023-08-24T17:34:59;31.10;99.90
12438;DHT22;6283;51.330;12.374;2023-08-24T17:37:25;31.00;99.90
12438;DHT22;6283;51.330;12.374;2023-08-24T17:39:50;30.90;99.90
12438;DHT22;6283;51.330;12.374;2023-08-24T17:42:16;30.70;99.90
12438;DHT22;6283;51.330;12.374;2023-08-24T17:44:42;30.60;99.90
12438;DHT22;6283;51.330;12.374;2023-08-24T17:47:08;30.50;99.90
12438;DHT22;6283;51.330;12.374;2023-08-24T17:49:33;30.30;99.90
12438;DHT22;6283;51.330;12.374;2023-08-24T17:51:59;30.20;99.90
12438;DHT22;6283;51.330;12.374;2023-08-24T17:54:25;30.10;99.90
12438;DHT22;6283;51.330;12.374;2023-08-24T17:56:52;30.00;99.90
12438;DHT22;6283;51.330;12.374;2023-08-24T17:59:17;29.90;99.90
12438;DHT22;6283;51.330;12.374;2023-08-24T18:01:44;29.90;1.00
12438;DHT22;6283;51.330;12.374;2023-08-24T18:04:09;29.90;99.90
12438;DHT22;6283;51.330;12.374;2023-08-24T18:06:35;29.80;99.90
12438;DHT22;6283;51.330;12.374;2023-08-24T18:09:01;29.80;99.90
12438;DHT22;6283;51.330;12.374;2023-08-24T18:11:29;29.80;99.90
12438;DHT22;6283;51.330;12.374;2023-08-24T18:13:55;29.70;99.90
12438;DHT22;6283;51.330;12.374;2023-08-24T18:16:23;29.70;99.90
12438;DHT22;6283;51.330;12.374;2023-08-24T18:18:48;29.60;99.90
12438;DHT22;6283;51.330;12.374;2023-08-24T18:21:14;29.60;99.90
12438;DHT22;6283;51.330;12.374;2023-08-24T18:23:40;29.50;99.90
12438;DHT22;6283;51.330;12.374;2023-08-24T18:26:05;29.40;99.90
12438;DHT22;6283;51.330;12.374;2023-08-24T18:28:31;29.30;99.90
12438;DHT22;6283;51.330;12.374;2023-08-24T18:30:57;29.20;1.40
12438;DHT22;6283;51.330;12.374;2023-08-24T18:33:23;29.20;99.90
12438;DHT22;6283;51.330;12.374;2023-08-24T18:35:53;29.10;1.00
12438;DHT22;6283;51.330;12.374;2023-08-24T18:38:20;29.00;1.00
12438;DHT22;6283;51.330;12.374;2023-08-24T18:40:46;28.90;1.00
12438;DHT22;6283;51.330;12.374;2023-08-24T18:43:15;28.90;1.00
12438;DHT22;6283;51.330;12.374;2023-08-24T18:45:40;28.80;1.00
12438;DHT22;6283;51.330;12.374;2023-08-24T18:48:06;28.70;1.00
12438;DHT22;6283;51.330;12.374;2023-08-24T18:50:32;28.60;1.00
12438;DHT22;6283;51.330;12.374;2023-08-24T18:52:57;28.60;1.00
12438;DHT22;6283;51.330;12.374;2023-08-24T18:55:23;28.50;1.00
12438;DHT22;6283;51.330;12.374;2023-08-24T18:57:49;28.30;1.00
12438;DHT22;6283;51.330;12.374;2023-08-24T19:00:14;28.30;1.00
12438;DHT22;6283;51.330;12.374;2023-08-24T19:02:40;28.20;1.00
12438;DHT22;6283;51.330;12.374;2023-08-24T19:05:06;28.20;1.00